首页
METAR-TAF:

METAR-TAF

机场 :

Lawson Army Airfield

哥伦布, 喬治亞, 美国

纬度: 32-20N, 经度: 084-50W, 海拔: 71米

当前天气观测

该预报发布于14分钟前的13:56 UTC
风速6节,风向
温度 23°C
湿度 100%
气压 1017 hPa
能見度: 16.1公里
阴天层高于800英尺

METAR: KLSF 251356Z AUTO 08006KT 10SM OVC008 23/23 A3004 RMK AO2 SLP176 T02320232 $

时间: 10:10 (14:10 UTC)

预报

该预报发布于37小时和10分钟前的01:00 UTC
预报有效从24日的 01点(UTC)到 25日的 07点(UTC)
风速6节,风向多变
能見度: 6000
多云层高于4000英尺, 积雨云.
雷暴, 小雨, 轻雾
成为
从 24日的 02点(UTC)到 24日的 03点(UTC)
风速6节,风向多变
能见度10公里或以上
散云层高于3000英尺
多云层高于4000英尺
成为
从 24日的 08点(UTC)到 24日的 09点(UTC)
风速6节,风向多变
能見度: 6000
多云层高于1000英尺
轻雾
短暂存在
从 24日的 11点(UTC)到 24日的 13点(UTC)
能見度: 1600
多云层高于600英尺
轻雾
成为
从 24日的 14点(UTC)到 24日的 15点(UTC)
风速6节,风向多变
能见度10公里或以上
散云层高于6000英尺
短暂存在
从 24日的 19点(UTC)到 25日的 00点(UTC)
风速10节,风向多变,有时为25节阵风
能見度: 6000
多云层高于4000英尺, 积雨云.
雷暴, 雨
成为
从 25日的 02点(UTC)到 25日的 03点(UTC)
风速6节,风向多变
能見度: 2609
多云层高于2000英尺

TAF: KLSF 240100Z 2401/2507 VRB06KT 6000 -TSRA BR BKN040CB QNH2991INS BECMG 2402/2403 VRB06KT 9999 NSW SCT030 BKN040 QNH2994INS BECMG 2408/2409 VRB06KT 6000 BR BKN010 QNH2991INS TEMPO 2411/2413 1600 BR BKN006 BECMG 2414/2415 VRB06KT 9999 NSW SCT060 QNH2990INS TEMPO 2419/2500 VRB10G25KT 6000 TSRA BKN040CB BECMG 2502/2503 VRB06KT 9999 BKN020 QNH2987INS TX34/2421Z TN25/2409Z LAST NO AMDS AFT 2404 NEXT 2609

超过4000个机场的气象观测和天气预报(METAR&TAF报告)。

可查询的气象台以黄色和红色小点在地图上表示。

将鼠标移到小点上方,可查看气象台名称。

然后点击查看天气观测和预报。

如需切换地图:点击带黑十字的绿色按钮放大地图;点击带横线的绿色按钮缩小地图;或者点击绿色箭头查看邻近地区的地图。


METAR-TAF: